ěÝzenÝ letovÚho provozu ╚eskÚ republiky
Letiste: LKKB Aktualizace: 10.08.2022 17:29:32  UTC
 METAR LKKB 10.08. 17:30 ...
METAR LKKB 101730Z 08007KT CAVOK 24/09 Q1024 NOSIG RMK BLU BLU=
 TAF LKKB 10.08. 11:00 ...
TAF LKKB 101100Z 1012/1112 07006KT CAVOK      TEMPO 1012/1018 09012KT      BECMG 1020/1022 VRB02KT      BECMG 1108/1110 08006KT=